KCCR/CCR METAR and TAF weather

Enter ICAO airport designator
Station Type Date Time Source
KCCR METAR 2019/10/18 06:53 UTC NOAA

KCCR 180653Z AUTO 00000KT 10SM CLR 14/07 A3002 RMK AO2 SLP151 T01440072


Station Type Date Time Source
KCCR Decoded METAR 2019/10/18 06:53 UTC NOAA

CONCORD BUCHANAN FIELD, CA, United States (KCCR) 38-00N 122-03W 11M
Oct 18, 2019 - 02:53 AM EDT / 2019.10.18 0653 UTC
Wind: Calm:0
Visibility: 10 mile(s):0
Sky conditions: clear
Temperature: 57.9 F (14.4 C)
Dew Point: 45.0 F (7.2 C)
Relative Humidity: 61%
Pressure (altimeter): 30.02 in. Hg (1016 hPa)
ob: KCCR 180653Z AUTO 00000KT 10SM CLR 14/07 A3002 RMK AO2 SLP151 T01440072
cycle: 7

Station Type Date Time Source
KCCR TAF 2016/02/08 18:39 UTC NOAA

TAF KCCR 081738Z 0818/0918 07006KT P6SM SKC
FM082000 06010KT P6SM SKC
FM090000 06005KT P6SM SKC
FM090600 VRB03KT P6SM SKC

Example: see airport list